Latest Coastal Weather Observations for Maningrida Airport

IDD60701

Issued at 1:21 pm CST Monday 29 August 2016 (issued every 10 minutes, with the page automatically refreshed every 10 minutes)

About coastal observations | Map of coastal stations | Coastal observations for NT | Marine services | Other Formats
Station Details ID: 014405 Name: MANINGRIDA AIRPORT Lat: -12.06 Lon: 134.23 Height: 28.1 m
Data from the previous 72 hours. | See also: Recent months at Maningrida Airport
Date/Time
CST
Temp
°C
Wind Pressure Rain since
9am
mm
Weather Cloud Vis
km
Sea
Height
m
Swell
Dir  Spd
kts
Gust
kts
hPa Trend Height
m
Period
s
Dir
29/01:00pm 29.9 ENE 12 16 1013.1 - 0.0 - - 10 - - - -
29/12:30pm 30.2 ENE 11 16 1013.6 - 0.0 - - 10 - - - -
29/12:00pm 30.4 E 11 17 1014.0 - 0.0 - - 10 - - - -
29/11:30am 30.5 E 10 15 1014.4 - 0.0 - - 10 - - - -
29/11:00am 29.6 ENE 10 16 1014.9 - 0.0 - - 10 - - - -
29/10:30am 29.2 ENE 8 12 1015.2 - 0.0 - Partly cloudy 10 - - - -
29/10:00am 29.2 ESE 9 14 1015.3 - 0.0 - - 10 - - - -
29/09:30am 27.3 SE 7 10 1015.4 - 0.0 - - 10 - - - -
29/09:00am 25.8 SE 7 10 1015.5 - 0.0 - - 10 - - - -
29/08:30am 25.3 SE 8 10 1015.2 - 0.0 - - 10 - - - -
29/08:00am 23.2 S 6 7 1014.9 - 0.0 - - 10 - - - -
29/07:30am 21.8 S 6 8 1014.6 - 0.0 - - 10 - - - -
29/07:00am 20.4 S 5 7 1014.3 - 0.0 - - 10 - - - -
29/06:30am 20.4 S 5 6 1013.8 - 0.0 - Partly cloudy 10 - - - -
29/06:00am 20.5 S 4 6 1013.6 - 0.0 - Mostly cloudy 10 - - - -
29/05:30am 20.4 S 5 6 1013.2 - 0.0 - Partly cloudy 10 - - - -
29/05:00am 20.9 S 5 7 1012.8 - 0.0 - - 10 - - - -
29/04:30am 21.1 SSE 5 7 1012.5 - 0.0 - - 10 - - - -
29/04:00am 21.4 SSE 6 7 1012.5 - 0.0 - - 10 - - - -
29/03:30am 21.4 SSE 5 7 1012.5 - 0.0 - - 10 - - - -
29/03:00am 21.3 SSE 5 7 1012.6 - 0.0 - - 10 - - - -
29/02:30am 21.6 S 4 6 1012.7 - 0.0 - Partly cloudy 10 - - - -
29/02:00am 22.1 SSE 5 8 1012.8 - 0.0 - Partly cloudy 10 - - - -
29/01:30am 22.0 SSE 5 7 1012.8 - 0.0 - Partly cloudy 10 - - - -
29/01:00am 21.8 SSE 5 7 1012.9 - 0.0 - - 7 - - - -
29/12:30am 22.3 SSE 5 7 1013.2 - 0.0 - - 10 - - - -
29/12:00am 21.9 SE 4 5 1013.1 - 0.0 - - 10 - - - -
 
Date/Time
CST
Temp
°C
Wind Pressure Rain since
9am
mm
Weather Cloud Vis
km
Sea
Height
m
Swell
Dir  Spd
kts
Gust
kts
hPa Trend Height
m
Period
s
Dir
28/11:30pm 23.7 ENE 4 6 1013.0 - 0.0 - - 10 - - - -
28/11:00pm 23.6 ENE 3 4 1012.8 - 0.0 - - 10 - - - -
28/10:30pm 23.7 NE 3 5 1012.9 - 0.0 - - 10 - - - -
28/10:00pm 24.0 NE 4 5 1012.8 - 0.0 - - 10 - - - -
28/09:30pm 24.2 NE 4 6 1012.8 - 0.0 - - 10 - - - -
28/09:00pm 24.6 ENE 5 7 1012.6 - 0.0 - - 10 - - - -
28/08:30pm 24.4 ENE 4 6 1012.3 - 0.0 - - 10 - - - -
28/08:00pm 24.5 NE 3 4 1012.1 - 0.0 - - 10 - - - -
28/07:30pm 25.0 ENE 4 5 1011.8 - 0.0 - - 10 - - - -
28/07:00pm 25.4 ENE 5 7 1011.5 - 0.0 - - 10 - - - -
28/06:30pm 26.0 ENE 7 10 1011.5 - 0.0 - - 10 - - - -
28/06:00pm 27.0 ENE 7 11 1011.1 - 0.0 - - 10 - - - -
28/05:30pm 27.7 ENE 9 12 1011.0 - 0.0 - - 10 - - - -
28/05:00pm 28.9 ENE 9 13 1010.9 - 0.0 - - 10 - - - -
28/04:30pm 30.4 NE 8 10 1010.8 - 0.0 - - 10 - - - -
28/04:00pm 30.2 NE 10 14 1010.7 - 0.0 - - 10 - - - -
28/03:30pm 30.5 NE 10 13 1010.8 - 0.0 - - 10 - - - -
28/03:00pm 30.4 NNE 10 13 1011.0 - 0.0 - - 10 - - - -
28/02:30pm 31.4 NE 9 12 1011.2 - 0.0 - - 10 - - - -
28/02:00pm 30.7 N 11 13 1011.7 - 0.0 - - 10 - - - -
28/01:30pm 31.7 NNE 9 12 1012.5 - 0.0 - - 10 - - - -
28/01:00pm 31.6 N 10 12 1013.3 - 0.0 - - 10 - - - -
28/12:30pm 32.3 SSE 5 10 1013.8 - 0.0 - - 10 - - - -
28/12:00pm 31.1 SE 6 10 1014.4 - 0.0 - - 10 - - - -
28/11:30am 30.2 SE 9 12 1015.1 - 0.0 - - 10 - - - -
28/11:00am 29.5 ESE 9 13 1015.7 - 0.0 - - 10 - - - -
28/10:30am 28.1 SE 10 14 1016.3 - 0.0 - - 10 - - - -
28/10:00am 27.0 SE 11 15 1016.5 - 0.0 - - 10 - - - -
28/09:30am 25.4 ESE 8 11 1016.8 - 0.0 - - 10 - - - -
28/09:00am 24.2 ESE 10 14 1016.7 - 0.0 - - 10 - - - -
28/08:30am 22.7 SSE 6 9 1016.4 - 0.0 - - 10 - - - -
28/08:00am 20.0 S 5 7 1016.3 - 0.0 - - 10 - - - -
28/07:30am 18.4 S 5 6 1016.0 - 0.0 - - 10 - - - -
28/07:00am 15.1 S 4 5 1015.8 - 0.0 - - 10 - - - -
28/06:30am 15.1 SSE 4 5 1015.5 - 0.0 - - 10 - - - -
28/06:00am 15.3 CALM 0 0 1015.2 - 0.0 - - 10 - - - -
28/05:30am 16.1 CALM 0 0 1015.1 - 0.0 - - 10 - - - -
28/05:00am 16.9 S 4 5 1014.9 - 0.0 - - 10 - - - -
28/04:30am 17.3 SSE 4 5 1014.7 - 0.0 - - 10 - - - -
28/04:00am 17.6 S 3 4 1014.8 - 0.0 - - 10 - - - -
28/03:30am 18.1 S 5 7 1014.7 - 0.0 - - 10 - - - -
28/03:00am 18.9 SSE 5 7 1014.8 - 0.0 - - 10 - - - -
28/02:30am 19.0 SSE 4 5 1014.9 - 0.0 - - 10 - - - -
28/02:00am 19.7 SE 3 5 1015.1 - 0.0 - - 10 - - - -
28/01:30am 20.2 SSE 5 6 1015.2 - 0.0 - - 10 - - - -
28/01:00am 21.2 ESE 5 8 1015.6 - 0.0 - - 10 - - - -
28/12:30am 21.9 SE 7 10 1015.6 - 0.0 - - 10 - - - -
28/12:00am 22.3 SE 9 12 1015.6 - 0.0 - - 10 - - - -
 
Date/Time
CST
Temp
°C
Wind Pressure Rain since
9am
mm
Weather Cloud Vis
km
Sea
Height
m
Swell
Dir  Spd
kts
Gust
kts
hPa Trend Height
m
Period
s
Dir
27/11:30pm 22.9 ESE 10 15 1015.5 - 0.0 - - 10 - - - -
27/11:00pm 23.4 ESE 9 14 1015.3 - 0.0 - - 10 - - - -
27/10:30pm 24.1 SE 12 18 1015.2 - 0.0 - - 10 - - - -
27/10:00pm 24.7 ESE 11 15 1014.9 - 0.0 - - 10 - - - -
27/09:30pm 25.3 ESE 11 17 1014.6 - 0.0 - - 10 - - - -
27/09:00pm 25.7 E 7 11 1014.1 - 0.0 - - 10 - - - -
27/08:30pm 26.0 ENE 8 11 1013.6 - 0.0 - - 10 - - - -
27/08:00pm 25.9 ENE 7 11 1013.3 - 0.0 - - 10 - - - -
27/07:30pm 25.9 ENE 7 9 1012.9 - 0.0 - - 10 - - - -
27/07:00pm 26.0 ENE 7 10 1012.6 - 0.0 - - 10 - - - -
27/06:30pm 26.3 ENE 8 12 1012.3 - 0.0 - - 10 - - - -
27/06:00pm 26.8 NE 9 15 1012.1 - 0.0 - - 10 - - - -
27/05:30pm 28.1 NE 9 13 1011.9 - 0.0 - - 10 - - - -
27/05:00pm 28.5 NNE 10 15 1011.8 - 0.0 - - 10 - - - -
27/04:30pm 29.7 NNE 9 12 1011.4 - 0.0 - - 10 - - - -
27/04:00pm 30.3 N 10 14 1011.3 - 0.0 - - 10 - - - -
27/03:30pm 31.3 N 11 15 1011.3 - 0.0 - - 10 - - - -
27/03:00pm 33.3 ESE 6 10 1011.5 - 0.0 - - 10 - - - -
27/02:30pm 33.3 SSE 7 13 1011.9 - 0.0 - - 10 - - - -
27/02:00pm 32.5 ESE 8 13 1012.5 - 0.0 - - 10 - - - -
27/01:30pm 31.7 S 8 13 1013.2 - 0.0 - - 10 - - - -
27/01:00pm 31.9 SE 9 15 1013.8 - 0.0 - - 10 - - - -
27/12:30pm 30.1 SSE 11 16 1014.6 - 0.0 - - 10 - - - -
27/12:00pm 30.2 SE 9 16 1015.1 - 0.0 - - 10 - - - -
27/11:30am 29.5 SE 9 14 1015.8 - 0.0 - - 10 - - - -
27/11:00am 28.0 SE 11 17 1016.4 - 0.0 - - 10 - - - -
27/10:30am 27.8 ESE 10 15 1016.7 - 0.0 - - 10 - - - -
27/10:00am 26.3 SE 13 17 1016.7 - 0.0 - - 10 - - - -
27/09:30am 25.3 SE 14 19 1016.9 - 0.0 - - 10 - - - -
27/09:00am 24.3 SE 11 16 1016.9 - 0.0 - - 10 - - - -
27/08:30am 22.9 SSE 8 15 1016.8 - 0.0 - - 10 - - - -
27/08:00am 20.4 S 5 8 1016.9 - 0.0 - - 10 - - - -
27/07:30am 18.9 S 4 6 1016.6 - 0.0 - - 10 - - - -
27/07:00am 17.5 S 5 6 1016.3 - 0.0 - - 10 - - - -
27/06:30am 17.1 SSW 5 6 1016.0 - 0.0 - - 10 - - - -
27/06:00am 16.6 S 4 5 1015.4 - 0.0 - - 10 - - - -
27/05:30am 17.2 SSE 4 5 1015.2 - 0.0 - - 10 - - - -
27/05:00am 17.9 SSE 4 5 1014.9 - 0.0 - - 10 - - - -
27/04:30am 18.6 SSE 5 6 1014.7 - 0.0 - - 10 - - - -
27/04:00am 18.9 SE 5 6 1014.5 - 0.0 - - 10 - - - -
27/03:30am 19.0 S 4 6 1014.4 - 0.0 - - 10 - - - -
27/03:00am 19.9 SSE 6 7 1014.4 - 0.0 - - 10 - - - -
27/02:30am 20.5 ESE 6 7 1014.6 - 0.0 - - 10 - - - -
27/02:00am 20.9 SE 7 8 1014.8 - 0.0 - - 10 - - - -
27/01:30am 21.3 ESE 7 8 1015.0 - 0.0 - - 10 - - - -
27/01:00am 21.6 E 5 7 1015.3 - 0.0 - - 10 - - - -
27/12:30am 22.3 ESE 5 7 1015.4 - 0.0 - - 10 - - - -
27/12:00am 23.1 SE 9 12 1015.5 - 0.0 - - 10 - - - -
 
Date/Time
CST
Temp
°C
Wind Pressure Rain since
9am
mm
Weather Cloud Vis
km
Sea
Height
m
Swell
Dir  Spd
kts
Gust
kts
hPa Trend Height
m
Period
s
Dir
26/11:30pm 23.5 SE 9 11 1015.3 - 0.0 - - 10 - - - -
26/11:00pm 24.1 SE 9 14 1015.3 - 0.0 - - 10 - - - -
26/10:30pm 24.6 SE 11 15 1015.0 - 0.0 - - 10 - - - -
26/10:00pm 25.0 ESE 10 15 1014.6 - 0.0 - - 10 - - - -
26/09:30pm 25.5 ESE 10 15 1014.3 - 0.0 - - 10 - - - -
26/09:00pm 25.8 E 7 9 1013.9 - 0.0 - - 10 - - - -
26/08:30pm 26.0 E 6 10 1013.4 - 0.0 - - 10 - - - -
26/08:00pm 26.1 ENE 8 12 1013.1 - 0.0 - - 10 - - - -
26/07:30pm 26.1 ENE 9 12 1012.8 - 0.0 - - 10 - - - -
26/07:00pm 26.4 E 8 13 1012.5 - 0.0 - - 10 - - - -
26/06:30pm 26.6 ENE 10 14 1012.1 - 0.0 - - 10 - - - -
26/06:00pm 27.2 ENE 11 16 1011.6 - 0.0 - - 10 - - - -
26/05:30pm 27.6 ENE 10 15 1011.4 - 0.0 - - 10 - - - -
26/05:00pm 28.3 ENE 10 15 1011.3 - 0.0 - - 10 - - - -
26/04:30pm 28.9 ENE 11 16 1011.1 - 0.0 - - 10 - - - -
26/04:00pm 29.5 ENE 10 15 1011.0 - 0.0 - - 10 - - - -
26/03:30pm 30.2 ENE 9 13 1011.1 - 0.0 - Partly cloudy 10 - - - -
26/03:00pm 30.7 ENE 8 13 1011.4 - 0.0 - Partly cloudy 10 - - - -
26/02:30pm 30.3 NE 8 13 1011.8 - 0.0 - Partly cloudy 10 - - - -
26/02:00pm 31.0 ESE 7 10 1012.2 - 0.0 - Cloudy 10 - - - -
26/01:30pm 30.6 ESE 9 13 1012.6 - 0.0 - Partly cloudy 10 - - - -

Other Formats:

Comma delimited format used in spreadsheet applications
http://www.bom.gov.au/fwo/IDD60701/IDD60701.95142.axf

JavaScript Object Notation format (JSON) in row-major order
http://www.bom.gov.au/fwo/IDD60701/IDD60701.95142.json